sensor_id;sensor_type;location;lat;lon;timestamp;temperature;humidity
15543;DHT22;7873;52.230;12.856;2023-05-07T00:01:44;26.50;38.60
15543;DHT22;7873;52.230;12.856;2023-05-07T00:04:11;26.50;38.70
15543;DHT22;7873;52.230;12.856;2023-05-07T00:06:38;26.50;38.70
15543;DHT22;7873;52.230;12.856;2023-05-07T00:09:06;26.40;38.80
15543;DHT22;7873;52.230;12.856;2023-05-07T00:11:33;26.40;38.80
15543;DHT22;7873;52.230;12.856;2023-05-07T00:14:00;26.40;38.90
15543;DHT22;7873;52.230;12.856;2023-05-07T00:16:27;26.40;38.80
15543;DHT22;7873;52.230;12.856;2023-05-07T00:18:53;26.30;38.90
15543;DHT22;7873;52.230;12.856;2023-05-07T00:21:20;26.30;38.90
15543;DHT22;7873;52.230;12.856;2023-05-07T00:23:47;26.30;39.10
15543;DHT22;7873;52.230;12.856;2023-05-07T00:26:15;26.20;39.00
15543;DHT22;7873;52.230;12.856;2023-05-07T00:28:42;26.20;39.10
15543;DHT22;7873;52.230;12.856;2023-05-07T00:31:09;26.30;39.00
15543;DHT22;7873;52.230;12.856;2023-05-07T00:33:35;26.30;39.00
15543;DHT22;7873;52.230;12.856;2023-05-07T00:36:02;26.20;39.00
15543;DHT22;7873;52.230;12.856;2023-05-07T00:38:29;26.20;39.00
15543;DHT22;7873;52.230;12.856;2023-05-07T00:40:56;26.20;39.00
15543;DHT22;7873;52.230;12.856;2023-05-07T00:43:24;26.10;39.00
15543;DHT22;7873;52.230;12.856;2023-05-07T00:45:50;26.10;39.20
15543;DHT22;7873;52.230;12.856;2023-05-07T00:48:17;26.10;39.20
15543;DHT22;7873;52.230;12.856;2023-05-07T00:50:44;26.10;39.20
15543;DHT22;7873;52.230;12.856;2023-05-07T00:53:12;26.10;39.20
15543;DHT22;7873;52.230;12.856;2023-05-07T00:55:39;26.00;39.50
15543;DHT22;7873;52.230;12.856;2023-05-07T00:58:06;26.00;39.40
15543;DHT22;7873;52.230;12.856;2023-05-07T01:00:34;25.80;39.60
15543;DHT22;7873;52.230;12.856;2023-05-07T01:03:01;25.80;39.80
15543;DHT22;7873;52.230;12.856;2023-05-07T01:05:27;25.80;39.60
15543;DHT22;7873;52.230;12.856;2023-05-07T01:07:55;25.90;39.60
15543;DHT22;7873;52.230;12.856;2023-05-07T01:10:23;25.90;39.60
15543;DHT22;7873;52.230;12.856;2023-05-07T01:12:50;25.80;39.60
15543;DHT22;7873;52.230;12.856;2023-05-07T01:15:18;25.70;39.80
15543;DHT22;7873;52.230;12.856;2023-05-07T01:17:46;25.60;40.00
15543;DHT22;7873;52.230;12.856;2023-05-07T01:20:13;25.70;39.80
15543;DHT22;7873;52.230;12.856;2023-05-07T01:22:42;25.70;39.90
15543;DHT22;7873;52.230;12.856;2023-05-07T01:25:09;25.70;39.90
15543;DHT22;7873;52.230;12.856;2023-05-07T01:27:36;25.50;40.20
15543;DHT22;7873;52.230;12.856;2023-05-07T01:30:03;25.50;40.30
15543;DHT22;7873;52.230;12.856;2023-05-07T01:32:32;25.50;40.20
15543;DHT22;7873;52.230;12.856;2023-05-07T01:35:02;25.40;40.40
15543;DHT22;7873;52.230;12.856;2023-05-07T01:37:31;25.50;40.30
15543;DHT22;7873;52.230;12.856;2023-05-07T01:40:00;25.50;40.20
15543;DHT22;7873;52.230;12.856;2023-05-07T01:42:27;25.40;40.40
15543;DHT22;7873;52.230;12.856;2023-05-07T01:44:55;25.30;40.70
15543;DHT22;7873;52.230;12.856;2023-05-07T01:47:22;25.30;40.60
15543;DHT22;7873;52.230;12.856;2023-05-07T01:49:49;25.40;40.20
15543;DHT22;7873;52.230;12.856;2023-05-07T01:52:16;25.40;40.20
15543;DHT22;7873;52.230;12.856;2023-05-07T01:54:43;25.50;40.10
15543;DHT22;7873;52.230;12.856;2023-05-07T01:57:11;25.40;40.40
15543;DHT22;7873;52.230;12.856;2023-05-07T01:59:37;25.10;40.70
15543;DHT22;7873;52.230;12.856;2023-05-07T02:02:04;25.00;40.90
15543;DHT22;7873;52.230;12.856;2023-05-07T02:04:31;25.00;41.10
15543;DHT22;7873;52.230;12.856;2023-05-07T02:06:57;25.10;41.10
15543;DHT22;7873;52.230;12.856;2023-05-07T02:09:24;25.10;40.80
15543;DHT22;7873;52.230;12.856;2023-05-07T02:11:51;25.20;40.60
15543;DHT22;7873;52.230;12.856;2023-05-07T02:14:19;25.20;40.70
15543;DHT22;7873;52.230;12.856;2023-05-07T02:16:45;25.20;40.70
15543;DHT22;7873;52.230;12.856;2023-05-07T02:19:12;25.20;40.70
15543;DHT22;7873;52.230;12.856;2023-05-07T02:21:39;25.20;40.50
15543;DHT22;7873;52.230;12.856;2023-05-07T02:24:06;25.10;40.60
15543;DHT22;7873;52.230;12.856;2023-05-07T02:26:32;25.20;40.50
15543;DHT22;7873;52.230;12.856;2023-05-07T02:28:59;25.30;40.30
15543;DHT22;7873;52.230;12.856;2023-05-07T02:31:27;25.20;40.30
15543;DHT22;7873;52.230;12.856;2023-05-07T02:33:54;25.30;40.20
15543;DHT22;7873;52.230;12.856;2023-05-07T02:36:20;25.20;40.50
15543;DHT22;7873;52.230;12.856;2023-05-07T02:38:47;25.20;40.40
15543;DHT22;7873;52.230;12.856;2023-05-07T02:41:14;25.20;40.40
15543;DHT22;7873;52.230;12.856;2023-05-07T02:43:40;25.20;40.50
15543;DHT22;7873;52.230;12.856;2023-05-07T02:46:08;25.20;40.30
15543;DHT22;7873;52.230;12.856;2023-05-07T02:48:36;25.20;40.20
15543;DHT22;7873;52.230;12.856;2023-05-07T02:51:03;25.20;40.40
15543;DHT22;7873;52.230;12.856;2023-05-07T02:53:30;25.20;40.30
15543;DHT22;7873;52.230;12.856;2023-05-07T02:55:58;25.20;40.20
15543;DHT22;7873;52.230;12.856;2023-05-07T02:58:26;25.10;40.30
15543;DHT22;7873;52.230;12.856;2023-05-07T03:00:53;25.10;40.50
15543;DHT22;7873;52.230;12.856;2023-05-07T03:03:20;25.00;40.70
15543;DHT22;7873;52.230;12.856;2023-05-07T03:05:48;25.00;40.50
15543;DHT22;7873;52.230;12.856;2023-05-07T03:08:15;25.10;40.40
15543;DHT22;7873;52.230;12.856;2023-05-07T03:10:42;25.10;40.40
15543;DHT22;7873;52.230;12.856;2023-05-07T03:13:08;25.00;40.40
15543;DHT22;7873;52.230;12.856;2023-05-07T03:15:35;25.00;40.50
15543;DHT22;7873;52.230;12.856;2023-05-07T03:18:02;24.90;40.90
15543;DHT22;7873;52.230;12.856;2023-05-07T03:20:29;24.90;40.70
15543;DHT22;7873;52.230;12.856;2023-05-07T03:22:57;24.80;40.90
15543;DHT22;7873;52.230;12.856;2023-05-07T03:25:23;25.00;40.50
15543;DHT22;7873;52.230;12.856;2023-05-07T03:27:50;25.00;40.30
15543;DHT22;7873;52.230;12.856;2023-05-07T03:30:17;25.00;40.40
15543;DHT22;7873;52.230;12.856;2023-05-07T03:32:43;25.10;40.30
15543;DHT22;7873;52.230;12.856;2023-05-07T03:35:10;25.10;40.10
15543;DHT22;7873;52.230;12.856;2023-05-07T03:37:37;25.20;40.10
15543;DHT22;7873;52.230;12.856;2023-05-07T03:40:06;25.10;40.10
15543;DHT22;7873;52.230;12.856;2023-05-07T03:42:35;25.00;40.10
15543;DHT22;7873;52.230;12.856;2023-05-07T03:45:02;25.00;40.20
15543;DHT22;7873;52.230;12.856;2023-05-07T03:47:29;25.00;40.40
15543;DHT22;7873;52.230;12.856;2023-05-07T03:49:56;24.90;40.60
15543;DHT22;7873;52.230;12.856;2023-05-07T03:52:23;24.90;40.60
15543;DHT22;7873;52.230;12.856;2023-05-07T03:54:51;24.90;40.40
15543;DHT22;7873;52.230;12.856;2023-05-07T03:57:20;24.80;40.60
15543;DHT22;7873;52.230;12.856;2023-05-07T03:59:47;24.90;40.60
15543;DHT22;7873;52.230;12.856;2023-05-07T04:02:13;24.90;40.40
15543;DHT22;7873;52.230;12.856;2023-05-07T04:04:40;24.70;41.00
15543;DHT22;7873;52.230;12.856;2023-05-07T04:07:07;24.50;41.30
15543;DHT22;7873;52.230;12.856;2023-05-07T04:09:33;24.60;41.20
15543;DHT22;7873;52.230;12.856;2023-05-07T04:12:00;24.60;41.10
15543;DHT22;7873;52.230;12.856;2023-05-07T04:14:28;24.60;40.90
15543;DHT22;7873;52.230;12.856;2023-05-07T04:16:57;24.60;41.20
15543;DHT22;7873;52.230;12.856;2023-05-07T04:19:24;24.60;41.20
15543;DHT22;7873;52.230;12.856;2023-05-07T04:21:50;24.70;41.20
15543;DHT22;7873;52.230;12.856;2023-05-07T04:24:17;24.80;40.60
15543;DHT22;7873;52.230;12.856;2023-05-07T04:26:44;24.90;40.40
15543;DHT22;7873;52.230;12.856;2023-05-07T04:29:10;24.80;40.90
15543;DHT22;7873;52.230;12.856;2023-05-07T04:31:39;24.70;41.10
15543;DHT22;7873;52.230;12.856;2023-05-07T04:34:05;24.80;41.10
15543;DHT22;7873;52.230;12.856;2023-05-07T04:36:32;25.00;40.50
15543;DHT22;7873;52.230;12.856;2023-05-07T04:38:59;25.10;41.10
15543;DHT22;7873;52.230;12.856;2023-05-07T04:41:26;25.20;40.70
15543;DHT22;7873;52.230;12.856;2023-05-07T04:43:52;25.30;40.70
15543;DHT22;7873;52.230;12.856;2023-05-07T04:46:19;25.20;40.40
15543;DHT22;7873;52.230;12.856;2023-05-07T04:48:47;25.20;40.20
15543;DHT22;7873;52.230;12.856;2023-05-07T04:51:14;25.20;40.20
15543;DHT22;7873;52.230;12.856;2023-05-07T04:53:41;25.20;40.20
15543;DHT22;7873;52.230;12.856;2023-05-07T04:56:08;25.20;41.20
15543;DHT22;7873;52.230;12.856;2023-05-07T04:58:35;25.20;40.60
15543;DHT22;7873;52.230;12.856;2023-05-07T05:01:01;25.20;40.30
15543;DHT22;7873;52.230;12.856;2023-05-07T05:03:28;25.30;40.70
15543;DHT22;7873;52.230;12.856;2023-05-07T05:05:56;25.20;40.10
15543;DHT22;7873;52.230;12.856;2023-05-07T05:08:24;25.10;41.20
15543;DHT22;7873;52.230;12.856;2023-05-07T05:10:51;25.10;41.00
15543;DHT22;7873;52.230;12.856;2023-05-07T05:13:18;25.10;40.80
15543;DHT22;7873;52.230;12.856;2023-05-07T05:15:45;25.10;40.80
15543;DHT22;7873;52.230;12.856;2023-05-07T05:18:12;25.20;41.20
15543;DHT22;7873;52.230;12.856;2023-05-07T05:20:39;25.10;39.40
15543;DHT22;7873;52.230;12.856;2023-05-07T05:23:07;25.00;40.10
15543;DHT22;7873;52.230;12.856;2023-05-07T05:25:34;24.70;40.20
15543;DHT22;7873;52.230;12.856;2023-05-07T05:28:00;24.60;39.80
15543;DHT22;7873;52.230;12.856;2023-05-07T05:30:27;24.60;40.10
15543;DHT22;7873;52.230;12.856;2023-05-07T05:32:54;24.60;39.90
15543;DHT22;7873;52.230;12.856;2023-05-07T05:35:21;24.60;39.60
15543;DHT22;7873;52.230;12.856;2023-05-07T05:37:47;24.70;40.70
15543;DHT22;7873;52.230;12.856;2023-05-07T05:40:16;24.80;41.30
15543;DHT22;7873;52.230;12.856;2023-05-07T05:42:42;24.80;40.30
15543;DHT22;7873;52.230;12.856;2023-05-07T05:45:09;24.80;39.10
15543;DHT22;7873;52.230;12.856;2023-05-07T05:47:36;24.60;39.20
15543;DHT22;7873;52.230;12.856;2023-05-07T05:50:04;24.60;39.00
15543;DHT22;7873;52.230;12.856;2023-05-07T05:52:32;24.50;39.00
15543;DHT22;7873;52.230;12.856;2023-05-07T05:54:58;24.60;38.90
15543;DHT22;7873;52.230;12.856;2023-05-07T05:57:26;24.70;39.00
15543;DHT22;7873;52.230;12.856;2023-05-07T05:59:53;24.50;39.40
15543;DHT22;7873;52.230;12.856;2023-05-07T06:02:20;24.60;39.60
15543;DHT22;7873;52.230;12.856;2023-05-07T06:04:46;24.40;40.90
